createdAt,value
2019-05-16T00:01:01.412Z,61.45
2019-05-16T00:04:08.666Z,61.46
2019-05-16T00:07:14.778Z,62.06
2019-05-16T00:10:20.445Z,61.19
2019-05-16T00:13:28.038Z,60.83
2019-05-16T00:16:34.004Z,61.39
2019-05-16T00:19:39.718Z,61.26
2019-05-16T00:22:45.437Z,61.15
2019-05-16T00:25:51.096Z,61.59
2019-05-16T00:28:58.963Z,61.09
2019-05-16T00:32:04.429Z,59.99
2019-05-16T00:35:11.155Z,59.88
2019-05-16T00:38:18.315Z,59.56
2019-05-16T00:41:24.139Z,59.74
2019-05-16T00:44:29.882Z,59.75
2019-05-16T00:47:35.932Z,59.74
2019-05-16T00:50:41.766Z,60.78
2019-05-16T00:53:48.372Z,62.96
2019-05-16T00:56:54.738Z,62.63
2019-05-16T01:00:02.998Z,62.66
2019-05-16T01:03:08.677Z,62.05
2019-05-16T01:06:19.931Z,62.84
2019-05-16T01:09:22.133Z,64.60
2019-05-16T01:12:28.348Z,64.87
2019-05-16T01:15:34.336Z,63.81
2019-05-16T01:18:40.171Z,63.60
2019-05-16T01:21:48.241Z,64.41
2019-05-16T01:24:53.463Z,63.75
2019-05-16T01:27:59.189Z,64.01
2019-05-16T01:31:05.011Z,64.56
2019-05-16T01:34:10.775Z,64.40
2019-05-16T01:37:18.673Z,64.68
2019-05-16T01:40:24.378Z,64.89
2019-05-16T01:43:30.173Z,64.59
2019-05-16T01:46:35.887Z,64.64
2019-05-16T01:49:41.564Z,65.23
2019-05-16T01:52:48.653Z,65.74
2019-05-16T01:55:54.620Z,66.17
2019-05-16T01:59:00.501Z,65.84
2019-05-16T02:02:08.309Z,64.42
2019-05-16T02:05:13.975Z,64.72
2019-05-16T02:08:21.420Z,64.65
2019-05-16T02:11:28.495Z,65.50
2019-05-16T02:14:34.464Z,65.72
2019-05-16T02:17:40.217Z,66.57
2019-05-16T02:20:47.935Z,65.57
2019-05-16T02:23:53.485Z,65.21
2019-05-16T02:26:59.188Z,66.29
2019-05-16T02:30:05.274Z,65.87
2019-05-16T02:33:11.715Z,65.62
2019-05-16T02:36:21.262Z,65.22
2019-05-16T02:39:24.879Z,64.76
2019-05-16T02:42:31.298Z,65.34
2019-05-16T02:45:37.358Z,65.11
2019-05-16T02:48:43.273Z,64.81
2019-05-16T02:51:51.156Z,67.06
2019-05-16T02:55:00.593Z,66.24
2019-05-16T02:58:04.916Z,66.19
2019-05-16T03:01:11.914Z,65.79
2019-05-16T03:04:17.623Z,65.84
2019-05-16T03:07:37.713Z,67.09
2019-05-16T03:10:32.330Z,66.22
2019-05-16T03:13:42.274Z,66.05
2019-05-16T03:16:50.620Z,67.22
2019-05-16T03:20:01.519Z,66.99
2019-05-16T03:23:06.635Z,68.03
2019-05-16T03:26:13.407Z,67.63
2019-05-16T03:29:21.795Z,67.98
2019-05-16T03:32:26.569Z,67.27
2019-05-16T03:35:33.929Z,68.25
2019-05-16T03:38:41.523Z,68.03
2019-05-16T03:41:47.284Z,67.16
2019-05-16T03:44:53.823Z,67.00
2019-05-16T03:48:02.764Z,66.70
2019-05-16T03:51:06.914Z,66.31
2019-05-16T03:54:12.810Z,66.75
2019-05-16T03:57:21.165Z,67.33
2019-05-16T04:00:55.254Z,68.41
2019-05-16T04:04:01.868Z,67.99
2019-05-16T04:07:10.810Z,67.98
2019-05-16T04:10:15.282Z,68.10
2019-05-16T04:13:21.736Z,67.98
2019-05-16T04:16:31.434Z,69.81
2019-05-16T04:19:36.304Z,69.05
2019-05-16T04:22:42.048Z,69.59
2019-05-16T04:25:51.711Z,72.29
2019-05-16T04:28:55.192Z,73.43
2019-05-16T04:32:01.588Z,74.61
2019-05-16T04:35:10.948Z,75.25
2019-05-16T04:38:30.256Z,75.05
2019-05-16T04:41:22.419Z,74.11
2019-05-16T04:44:31.082Z,73.63
2019-05-16T04:47:35.630Z,75.34
2019-05-16T04:50:41.926Z,73.90
2019-05-16T04:53:50.713Z,72.84
2019-05-16T04:56:55.218Z,72.66
2019-05-16T05:00:02.261Z,72.41
2019-05-16T05:03:11.736Z,72.58
2019-05-16T05:06:16.077Z,71.36
2019-05-16T05:09:21.752Z,71.95
2019-05-16T05:12:27.417Z,70.52
2019-05-16T05:15:33.158Z,70.37
2019-05-16T05:18:40.888Z,71.46
2019-05-16T05:21:46.236Z,70.30
2019-05-16T05:24:52.103Z,69.95
2019-05-16T05:27:57.801Z,69.05
2019-05-16T05:31:03.676Z,66.35
2019-05-16T05:34:10.673Z,65.66
2019-05-16T05:37:16.875Z,63.48
2019-05-16T05:40:34.434Z,62.13
2019-05-16T05:43:41.337Z,61.82
2019-05-16T05:46:47.177Z,62.81
2019-05-16T05:49:52.866Z,61.19
2019-05-16T05:53:02.231Z,63.83
2019-05-16T05:56:11.154Z,64.28
2019-05-16T05:59:15.403Z,64.26
2019-05-16T06:02:21.082Z,63.68
2019-05-16T06:05:26.880Z,61.01
2019-05-16T06:08:32.599Z,59.62
2019-05-16T06:11:40.525Z,57.89
2019-05-16T06:14:45.656Z,57.50
2019-05-16T06:17:51.390Z,55.49
2019-05-16T06:20:57.098Z,55.33
2019-05-16T06:24:02.820Z,54.49
2019-05-16T06:27:09.805Z,53.97
2019-05-16T06:30:17.110Z,54.76
2019-05-16T06:33:22.887Z,54.18
2019-05-16T06:36:30.568Z,55.10
2019-05-16T06:39:42.071Z,54.98
2019-05-16T06:42:43.633Z,55.56
2019-05-16T06:45:51.249Z,56.02
2019-05-16T06:48:56.894Z,55.48
2019-05-16T06:52:02.609Z,56.63
2019-05-16T06:55:10.149Z,55.51
2019-05-16T06:58:15.896Z,53.32
2019-05-16T07:01:21.611Z,49.89
2019-05-16T07:04:27.385Z,48.86
2019-05-16T07:07:33.146Z,47.32
2019-05-16T07:10:39.744Z,47.20
2019-05-16T07:13:45.708Z,48.21
2019-05-16T07:16:51.383Z,50.42
2019-05-16T07:19:57.096Z,48.98
2019-05-16T07:23:02.820Z,48.13
2019-05-16T07:26:09.870Z,46.81
2019-05-16T07:29:15.926Z,45.98
2019-05-16T07:32:21.870Z,46.72
2019-05-16T07:35:27.541Z,45.46
2019-05-16T07:38:33.280Z,45.19
2019-05-16T07:41:40.151Z,45.96
2019-05-16T07:44:46.257Z,46.16
2019-05-16T07:47:51.939Z,46.15
2019-05-16T07:50:57.703Z,47.96
2019-05-16T07:54:03.376Z,47.69
2019-05-16T07:57:18.812Z,47.10
2019-05-16T08:00:16.664Z,45.23
2019-05-16T08:03:22.350Z,45.14
2019-05-16T08:06:33.699Z,45.53
2019-05-16T08:09:35.855Z,45.13
2019-05-16T08:12:41.518Z,44.63
2019-05-16T08:15:50.178Z,41.62
2019-05-16T08:18:54.765Z,42.54
2019-05-16T08:22:01.335Z,43.11
2019-05-16T08:25:07.459Z,44.65
2019-05-16T08:28:13.124Z,44.56
2019-05-16T08:31:21.407Z,46.35
2019-05-16T08:34:26.417Z,46.68
2019-05-16T08:37:41.342Z,47.32
2019-05-16T08:41:01.080Z,47.24
2019-05-16T08:43:46.976Z,47.95
2019-05-16T08:46:57.806Z,48.49
2019-05-16T08:50:00.725Z,47.49
2019-05-16T08:53:06.686Z,48.23
2019-05-16T08:56:13.248Z,48.28
2019-05-16T08:59:21.450Z,47.31
2019-05-16T09:02:33.551Z,47.80
2019-05-16T09:05:34.112Z,49.08
2019-05-16T09:08:39.900Z,48.96
2019-05-16T09:11:48.674Z,48.91
2019-05-16T09:14:53.323Z,47.83
2019-05-16T09:17:59.060Z,47.74
2019-05-16T09:21:07.218Z,47.89
2019-05-16T09:24:13.177Z,47.49
2019-05-16T09:27:19.120Z,48.39
2019-05-16T09:30:27.387Z,47.21
2019-05-16T09:33:32.507Z,46.28
2019-05-16T09:36:38.211Z,47.31
2019-05-16T09:39:48.318Z,47.83
2019-05-16T09:42:56.684Z,48.99
2019-05-16T09:46:03.935Z,49.83
2019-05-16T09:49:19.437Z,49.89
2019-05-16T09:52:16.580Z,49.50
2019-05-16T09:55:22.644Z,50.05
2019-05-16T09:58:28.351Z,49.28
2019-05-16T10:01:36.838Z,48.56
2019-05-16T10:04:41.667Z,49.55
2019-05-16T10:07:47.642Z,49.89
2019-05-16T10:10:53.320Z,49.83
2019-05-16T10:13:58.979Z,49.23
2019-05-16T10:17:04.723Z,49.34
2019-05-16T10:20:10.722Z,48.56
2019-05-16T10:23:18.098Z,48.41
2019-05-16T10:26:27.482Z,47.48
2019-05-16T10:29:31.474Z,47.29
2019-05-16T10:32:39.986Z,46.58
2019-05-16T10:35:47.925Z,46.23
2019-05-16T10:38:53.341Z,46.04
2019-05-16T10:41:59.284Z,46.65
2019-05-16T10:45:08.313Z,47.40
2019-05-16T10:48:12.601Z,46.67
2019-05-16T10:51:18.350Z,46.50
2019-05-16T10:54:24.203Z,46.92
2019-05-16T10:57:30.198Z,47.13
2019-05-16T11:01:05.436Z,47.76
2019-05-16T11:03:43.897Z,47.79
2019-05-16T11:06:49.603Z,47.72
2019-05-16T11:10:02.660Z,46.64
2019-05-16T11:13:02.893Z,44.54
2019-05-16T11:16:10.084Z,44.34
2019-05-16T11:19:21.246Z,45.33
2019-05-16T11:22:29.546Z,46.36
2019-05-16T11:25:36.717Z,47.02
2019-05-16T11:28:42.536Z,47.54
2019-05-16T11:31:48.255Z,46.65
2019-05-16T11:34:54.048Z,45.11
2019-05-16T11:37:59.850Z,45.13
2019-05-16T11:41:07.368Z,45.96
2019-05-16T11:44:13.394Z,46.74
2019-05-16T11:47:19.376Z,46.50
2019-05-16T11:50:27.879Z,45.63
2019-05-16T11:53:33.539Z,46.47
2019-05-16T11:56:39.258Z,46.33
2019-05-16T11:59:47.090Z,44.87
2019-05-16T12:02:53.405Z,43.75
2019-05-16T12:05:59.095Z,44.91
2019-05-16T12:09:06.810Z,45.16
2019-05-16T12:12:12.757Z,45.88
2019-05-16T12:15:20.151Z,45.66
2019-05-16T12:18:26.540Z,45.48
2019-05-16T12:21:32.500Z,45.52
2019-05-16T12:24:41.285Z,46.18
2019-05-16T12:27:48.128Z,46.05
2019-05-16T12:30:53.148Z,45.27
2019-05-16T12:33:59.765Z,44.51
2019-05-16T12:37:07.431Z,44.65
2019-05-16T12:40:16.991Z,44.40
2019-05-16T12:43:22.853Z,43.74
2019-05-16T12:46:28.910Z,43.70
2019-05-16T12:49:34.686Z,43.13
2019-05-16T12:52:40.503Z,43.26
2019-05-16T12:55:47.544Z,44.03
2019-05-16T12:58:54.587Z,43.40
2019-05-16T13:02:00.306Z,43.68
2019-05-16T13:05:06.277Z,43.40
2019-05-16T13:08:12.098Z,42.50
2019-05-16T13:11:17.907Z,42.04
2019-05-16T13:14:23.605Z,42.45
2019-05-16T13:17:29.506Z,42.93
2019-05-16T13:20:38.237Z,43.75
2019-05-16T13:23:42.772Z,44.03
2019-05-16T13:26:48.559Z,43.55
2019-05-16T13:29:54.347Z,44.13
2019-05-16T13:33:00.045Z,44.64
2019-05-16T13:36:07.482Z,44.93
2019-05-16T13:39:13.593Z,44.98
2019-05-16T13:42:19.411Z,44.98
2019-05-16T13:45:27.195Z,46.17
2019-05-16T13:48:32.619Z,45.38
2019-05-16T13:51:38.288Z,45.17
2019-05-16T13:54:44.129Z,45.68
2019-05-16T13:57:49.809Z,45.55
2019-05-16T14:00:57.155Z,45.55
2019-05-16T14:04:03.129Z,46.15
2019-05-16T14:07:11.159Z,46.06
2019-05-16T14:10:18.185Z,45.76
2019-05-16T14:13:24.344Z,45.32
2019-05-16T14:16:33.072Z,45.07
2019-05-16T14:19:38.817Z,45.08
2019-05-16T14:22:44.564Z,47.10
2019-05-16T14:25:50.269Z,46.07
2019-05-16T14:28:57.637Z,46.61
2019-05-16T14:32:03.551Z,46.02
2019-05-16T14:35:09.835Z,46.28
2019-05-16T14:38:18.088Z,46.15
2019-05-16T14:41:28.054Z,46.93
2019-05-16T14:44:53.250Z,47.29
2019-05-16T14:47:47.297Z,47.38
2019-05-16T14:50:53.124Z,48.71
2019-05-16T14:53:59.094Z,49.64
2019-05-16T14:57:05.047Z,49.65
2019-05-16T15:00:14.096Z,49.17
2019-05-16T15:03:20.149Z,49.22
2019-05-16T15:06:27.542Z,49.41
2019-05-16T15:09:33.465Z,49.19
2019-05-16T15:12:43.146Z,48.93
2019-05-16T15:15:49.005Z,49.95
2019-05-16T15:18:57.398Z,49.46
2019-05-16T15:22:02.634Z,48.52
2019-05-16T15:25:09.824Z,49.00
2019-05-16T15:28:17.209Z,48.88
2019-05-16T15:31:22.932Z,48.76
2019-05-16T15:34:30.313Z,48.66
2019-05-16T15:37:37.217Z,48.84
2019-05-16T15:40:43.407Z,47.87
2019-05-16T15:43:49.080Z,48.14
2019-05-16T15:46:56.638Z,48.64
2019-05-16T15:50:02.435Z,49.77
2019-05-16T15:53:08.365Z,50.40
2019-05-16T15:56:14.045Z,48.80
2019-05-16T15:59:20.044Z,49.29
2019-05-16T16:02:27.241Z,49.57
2019-05-16T16:05:33.038Z,49.92
2019-05-16T16:08:38.861Z,50.25
2019-05-16T16:11:44.725Z,50.25
2019-05-16T16:14:50.520Z,51.34
2019-05-16T16:17:57.385Z,50.33
2019-05-16T16:21:03.347Z,49.66
2019-05-16T16:24:09.464Z,49.83
2019-05-16T16:27:19.236Z,50.12
2019-05-16T16:30:27.773Z,50.25
2019-05-16T16:33:37.394Z,50.08
2019-05-16T16:36:43.401Z,49.91
2019-05-16T16:39:49.117Z,50.44
2019-05-16T16:42:56.813Z,50.44
2019-05-16T16:46:08.646Z,50.50
2019-05-16T16:49:10.080Z,50.96
2019-05-16T16:52:16.734Z,51.02
2019-05-16T16:55:22.811Z,51.29
2019-05-16T16:58:31.571Z,51.65
2019-05-16T17:01:39.998Z,51.19
2019-05-16T17:04:51.173Z,50.97
2019-05-16T17:07:53.027Z,50.40
2019-05-16T17:10:58.746Z,50.38
2019-05-16T17:14:06.842Z,50.37
2019-05-16T17:17:12.260Z,50.67
2019-05-16T17:20:19.445Z,50.96
2019-05-16T17:23:26.711Z,50.86
2019-05-16T17:26:32.533Z,50.68
2019-05-16T17:29:38.494Z,50.54
2019-05-16T17:32:44.503Z,51.28
2019-05-16T17:35:53.074Z,51.96
2019-05-16T17:38:58.797Z,51.61
2019-05-16T17:42:04.592Z,50.46
2019-05-16T17:45:10.888Z,50.43
2019-05-16T17:48:17.546Z,50.60
2019-05-16T17:51:23.483Z,50.42
2019-05-16T17:54:29.170Z,50.47
2019-05-16T17:57:36.965Z,50.45
2019-05-16T18:00:42.321Z,50.98
2019-05-16T18:03:48.109Z,51.02
2019-05-16T18:06:53.811Z,51.04
2019-05-16T18:09:59.584Z,51.40
2019-05-16T18:13:07.679Z,51.07
2019-05-16T18:16:12.790Z,51.40
2019-05-16T18:19:18.503Z,51.38
2019-05-16T18:22:24.229Z,51.63
2019-05-16T18:25:29.877Z,51.48
2019-05-16T18:28:37.868Z,51.65
2019-05-16T18:31:47.115Z,51.70
2019-05-16T18:34:52.231Z,51.75
2019-05-16T18:37:58.933Z,51.43
2019-05-16T18:41:04.807Z,51.85
2019-05-16T18:44:10.605Z,51.92
2019-05-16T18:47:17.890Z,51.57
2019-05-16T18:50:26.472Z,51.68
2019-05-16T18:53:33.479Z,51.61
2019-05-16T18:56:39.223Z,51.33
2019-05-16T18:59:46.219Z,51.48
2019-05-16T19:02:52.021Z,51.71
2019-05-16T19:05:57.813Z,51.41
2019-05-16T19:09:07.150Z,51.60
2019-05-16T19:12:13.212Z,51.45
2019-05-16T19:15:20.875Z,51.47
2019-05-16T19:18:26.668Z,51.78
2019-05-16T19:21:32.360Z,51.58
2019-05-16T19:24:38.184Z,51.98
2019-05-16T19:27:46.331Z,52.28
2019-05-16T19:30:57.020Z,52.20
2019-05-16T19:34:02.137Z,52.18
2019-05-16T19:37:07.859Z,52.42
2019-05-16T19:40:17.304Z,52.59
2019-05-16T19:43:23.162Z,52.55
2019-05-16T19:46:28.976Z,52.33
2019-05-16T19:49:36.869Z,52.19
2019-05-16T19:52:44.261Z,52.73
2019-05-16T19:55:50.174Z,52.55
2019-05-16T19:58:57.308Z,52.53
2019-05-16T20:02:04.020Z,52.46
2019-05-16T20:05:11.396Z,52.28
2019-05-16T20:08:17.625Z,52.30
2019-05-16T20:11:24.603Z,52.46
2019-05-16T20:14:30.482Z,52.55
2019-05-16T20:17:37.853Z,52.25
2019-05-16T20:20:47.278Z,51.96
2019-05-16T20:23:54.282Z,52.36
2019-05-16T20:27:00.051Z,51.99
2019-05-16T20:30:11.091Z,52.12
2019-05-16T20:33:17.926Z,52.18
2019-05-16T20:36:26.323Z,53.00
2019-05-16T20:39:31.574Z,53.21
2019-05-16T20:42:37.505Z,53.26
2019-05-16T20:45:47.658Z,53.43
2019-05-16T20:48:58.760Z,53.68
2019-05-16T20:52:02.502Z,54.56
2019-05-16T20:55:08.697Z,55.12
2019-05-16T20:58:16.302Z,55.05
2019-05-16T21:01:23.057Z,54.38
2019-05-16T21:04:28.765Z,54.54
2019-05-16T21:07:34.450Z,54.03
2019-05-16T21:10:40.242Z,53.38
2019-05-16T21:13:48.759Z,53.33
2019-05-16T21:16:53.526Z,54.02
2019-05-16T21:19:59.200Z,54.71
2019-05-16T21:23:07.152Z,54.00
2019-05-16T21:26:12.407Z,53.60
2019-05-16T21:29:19.577Z,53.62
2019-05-16T21:32:27.009Z,53.65
2019-05-16T21:35:32.999Z,53.55
2019-05-16T21:38:38.677Z,53.79
2019-05-16T21:41:44.394Z,54.61
2019-05-16T21:44:50.217Z,54.17
2019-05-16T21:47:56.768Z,55.57
2019-05-16T21:51:02.742Z,55.48
2019-05-16T21:54:08.575Z,57.91
2019-05-16T21:57:17.497Z,58.09
2019-05-16T22:00:28.894Z,60.93
2019-05-16T22:03:36.729Z,60.15
2019-05-16T22:06:42.864Z,60.61
2019-05-16T22:09:48.743Z,59.47
2019-05-16T22:12:56.882Z,58.77
2019-05-16T22:16:04.901Z,58.56
2019-05-16T22:19:10.182Z,58.90
2019-05-16T22:22:16.567Z,58.61
2019-05-16T22:25:22.398Z,57.99
2019-05-16T22:28:30.114Z,58.46
2019-05-16T22:31:36.664Z,58.35
2019-05-16T22:34:42.483Z,58.28
2019-05-16T22:37:55.255Z,57.35
2019-05-16T22:40:56.053Z,57.06
2019-05-16T22:44:01.934Z,56.63
2019-05-16T22:47:07.652Z,56.75
2019-05-16T22:50:13.680Z,56.57
2019-05-16T22:53:19.381Z,57.11
2019-05-16T22:56:26.164Z,57.22
2019-05-16T22:59:31.982Z,56.71
2019-05-16T23:02:37.810Z,56.40
2019-05-16T23:05:47.381Z,56.68
2019-05-16T23:08:50.927Z,56.79
2019-05-16T23:11:56.594Z,56.34
2019-05-16T23:15:02.415Z,57.08
2019-05-16T23:18:08.283Z,56.25
2019-05-16T23:21:13.954Z,55.95
2019-05-16T23:24:19.702Z,56.12
2019-05-16T23:27:27.278Z,56.08
2019-05-16T23:30:32.895Z,55.50
2019-05-16T23:33:38.572Z,55.70
2019-05-16T23:36:46.223Z,55.42
2019-05-16T23:39:51.707Z,55.49
2019-05-16T23:42:57.404Z,55.50
2019-05-16T23:46:03.143Z,56.50
2019-05-16T23:49:09.810Z,55.76
2019-05-16T23:52:16.805Z,56.62
2019-05-16T23:55:22.829Z,58.16
2019-05-16T23:58:29.508Z,57.49
